sensor_id;sensor_type;location;lat;lon;timestamp;pressure;altitude;pressure_sealevel;temperature;humidity
5651;BME280;40241;52.684;9.758;2023-10-19T00:00:45;99829.63;;;8.24;56.83
5651;BME280;40241;52.684;9.758;2023-10-19T00:03:14;99826.84;;;8.24;56.77
5651;BME280;40241;52.684;9.758;2023-10-19T00:05:41;99829.41;;;8.22;56.99
5651;BME280;40241;52.684;9.758;2023-10-19T00:08:07;99827.13;;;8.21;56.90
5651;BME280;40241;52.684;9.758;2023-10-19T00:10:38;99809.88;;;8.20;57.03
5651;BME280;40241;52.684;9.758;2023-10-19T00:13:04;99820.16;;;8.20;56.89
5651;BME280;40241;52.684;9.758;2023-10-19T00:15:32;99825.44;;;8.18;57.03
5651;BME280;40241;52.684;9.758;2023-10-19T00:17:59;99801.41;;;8.18;57.22
5651;BME280;40241;52.684;9.758;2023-10-19T00:20:32;99815.94;;;8.13;57.17
5651;BME280;40241;52.684;9.758;2023-10-19T00:23:06;99812.22;;;8.11;57.39
5651;BME280;40241;52.684;9.758;2023-10-19T00:25:32;99805.28;;;8.04;57.67
5651;BME280;40241;52.684;9.758;2023-10-19T00:28:00;99809.53;;;8.05;57.75
5651;BME280;40241;52.684;9.758;2023-10-19T00:30:29;99806.53;;;8.03;57.98
5651;BME280;40241;52.684;9.758;2023-10-19T00:33:00;99805.06;;;8.02;58.05
5651;BME280;40241;52.684;9.758;2023-10-19T00:35:30;99804.84;;;8.00;58.21
5651;BME280;40241;52.684;9.758;2023-10-19T00:38:07;99814.34;;;7.99;58.27
5651;BME280;40241;52.684;9.758;2023-10-19T00:40:51;99804.38;;;7.96;58.40
5651;BME280;40241;52.684;9.758;2023-10-19T00:43:31;99804.88;;;7.95;58.78
5651;BME280;40241;52.684;9.758;2023-10-19T00:46:02;99785.91;;;7.91;58.38
5651;BME280;40241;52.684;9.758;2023-10-19T00:48:29;99796.19;;;7.91;58.52
5651;BME280;40241;52.684;9.758;2023-10-19T00:50:54;99790.22;;;7.87;58.78
5651;BME280;40241;52.684;9.758;2023-10-19T00:53:35;99776.97;;;7.85;58.79
5651;BME280;40241;52.684;9.758;2023-10-19T00:56:03;99788.22;;;7.87;58.93
5651;BME280;40241;52.684;9.758;2023-10-19T00:58:32;99785.50;;;7.81;59.04
5651;BME280;40241;52.684;9.758;2023-10-19T01:01:02;99778.53;;;7.80;59.12
5651;BME280;40241;52.684;9.758;2023-10-19T01:03:31;99785.50;;;7.81;59.11
5651;BME280;40241;52.684;9.758;2023-10-19T01:06:04;99772.78;;;7.78;59.25
5651;BME280;40241;52.684;9.758;2023-10-19T01:08:36;99760.59;;;7.74;59.32
5651;BME280;40241;52.684;9.758;2023-10-19T01:11:08;99771.81;;;7.76;59.35
5651;BME280;40241;52.684;9.758;2023-10-19T01:13:37;99756.56;;;7.75;59.37
5651;BME280;40241;52.684;9.758;2023-10-19T01:16:03;99762.06;;;7.75;59.57
5651;BME280;40241;52.684;9.758;2023-10-19T01:18:30;99763.34;;;7.74;59.61
5651;BME280;40241;52.684;9.758;2023-10-19T01:20:58;99761.84;;;7.73;59.49
5651;BME280;40241;52.684;9.758;2023-10-19T01:23:27;99751.88;;;7.70;59.54
5651;BME280;40241;52.684;9.758;2023-10-19T01:25:58;99752.59;;;7.70;60.10
5651;BME280;40241;52.684;9.758;2023-10-19T01:28:28;99751.44;;;7.66;59.87
5651;BME280;40241;52.684;9.758;2023-10-19T01:31:18;99740.41;;;7.66;60.52
5651;BME280;40241;52.684;9.758;2023-10-19T01:33:53;99738.69;;;7.63;59.89
5651;BME280;40241;52.684;9.758;2023-10-19T01:36:30;99743.00;;;7.58;60.04
5651;BME280;40241;52.684;9.758;2023-10-19T01:39:02;99731.00;;;7.56;60.23
5651;BME280;40241;52.684;9.758;2023-10-19T01:41:34;99732.50;;;7.57;60.22
5651;BME280;40241;52.684;9.758;2023-10-19T01:43:59;99717.25;;;7.56;60.32
5651;BME280;40241;52.684;9.758;2023-10-19T01:46:30;99718.75;;;7.57;60.17
5651;BME280;40241;52.684;9.758;2023-10-19T01:48:59;99710.50;;;7.57;60.43
5651;BME280;40241;52.684;9.758;2023-10-19T01:51:28;99703.03;;;7.52;60.45
5651;BME280;40241;52.684;9.758;2023-10-19T01:53:54;99684.22;;;7.56;60.48
5651;BME280;40241;52.684;9.758;2023-10-19T01:56:23;99690.25;;;7.54;60.46
5651;BME280;40241;52.684;9.758;2023-10-19T01:58:49;99682.25;;;7.51;60.60
5651;BME280;40241;52.684;9.758;2023-10-19T02:01:17;99677.28;;;7.49;60.57
5651;BME280;40241;52.684;9.758;2023-10-19T02:04:04;99667.59;;;7.43;60.71
5651;BME280;40241;52.684;9.758;2023-10-19T02:06:32;99660.63;;;7.42;60.66
5651;BME280;40241;52.684;9.758;2023-10-19T02:09:09;99651.91;;;7.38;60.88
5651;BME280;40241;52.684;9.758;2023-10-19T02:11:46;99643.19;;;7.34;60.88
5651;BME280;40241;52.684;9.758;2023-10-19T02:14:12;99634.94;;;7.34;60.83
5651;BME280;40241;52.684;9.758;2023-10-19T02:16:44;99640.97;;;7.32;61.09
5651;BME280;40241;52.684;9.758;2023-10-19T02:19:13;99626.03;;;7.28;61.18
5651;BME280;40241;52.684;9.758;2023-10-19T02:21:38;99631.28;;;7.26;61.16
5651;BME280;40241;52.684;9.758;2023-10-19T02:24:08;99620.81;;;7.24;61.25
5651;BME280;40241;52.684;9.758;2023-10-19T02:26:34;99609.59;;;7.22;61.23
5651;BME280;40241;52.684;9.758;2023-10-19T02:29:01;99617.38;;;7.18;61.50
5651;BME280;40241;52.684;9.758;2023-10-19T02:31:32;99610.91;;;7.16;61.78
5651;BME280;40241;52.684;9.758;2023-10-19T02:33:58;99608.41;;;7.18;61.66
5651;BME280;40241;52.684;9.758;2023-10-19T02:36:28;99605.19;;;7.14;61.91
5651;BME280;40241;52.684;9.758;2023-10-19T02:38:56;99600.50;;;7.09;61.81
5651;BME280;40241;52.684;9.758;2023-10-19T02:41:24;99604.00;;;7.09;61.98
5651;BME280;40241;52.684;9.758;2023-10-19T02:43:52;99600.72;;;7.11;61.85
5651;BME280;40241;52.684;9.758;2023-10-19T02:46:31;99593.94;;;7.12;61.97
5651;BME280;40241;52.684;9.758;2023-10-19T02:49:03;99588.38;;;7.17;62.14
5651;BME280;40241;52.684;9.758;2023-10-19T02:51:29;99585.19;;;7.13;62.06
5651;BME280;40241;52.684;9.758;2023-10-19T02:53:55;99584.00;;;7.09;62.06
5651;BME280;40241;52.684;9.758;2023-10-19T02:56:21;99599.44;;;7.12;62.18
5651;BME280;40241;52.684;9.758;2023-10-19T02:58:49;99581.78;;;7.07;62.33
5651;BME280;40241;52.684;9.758;2023-10-19T03:01:19;99586.97;;;7.11;62.43
5651;BME280;40241;52.684;9.758;2023-10-19T03:03:51;99593.44;;;7.13;62.52
5651;BME280;40241;52.684;9.758;2023-10-19T03:06:20;99594.63;;;7.18;62.31
5651;BME280;40241;52.684;9.758;2023-10-19T03:08:47;99590.63;;;7.19;62.24
5651;BME280;40241;52.684;9.758;2023-10-19T03:11:13;99583.88;;;7.20;62.23
5651;BME280;40241;52.684;9.758;2023-10-19T03:13:40;99574.34;;;7.21;62.21
5651;BME280;40241;52.684;9.758;2023-10-19T03:16:07;99571.34;;;7.19;62.21
5651;BME280;40241;52.684;9.758;2023-10-19T03:18:34;99574.34;;;7.21;62.29
5651;BME280;40241;52.684;9.758;2023-10-19T03:21:01;99578.81;;;7.24;62.20
5651;BME280;40241;52.684;9.758;2023-10-19T03:23:26;99582.09;;;7.22;62.31
5651;BME280;40241;52.684;9.758;2023-10-19T03:25:55;99581.63;;;7.18;62.66
5651;BME280;40241;52.684;9.758;2023-10-19T03:28:40;99583.88;;;7.20;62.46
5651;BME280;40241;52.684;9.758;2023-10-19T03:31:06;99586.84;;;7.22;62.31
5651;BME280;40241;52.684;9.758;2023-10-19T03:33:32;99558.13;;;7.17;62.50
5651;BME280;40241;52.684;9.758;2023-10-19T03:36:01;99566.38;;;7.17;62.55
5651;BME280;40241;52.684;9.758;2023-10-19T03:38:27;99555.44;;;7.12;62.61
5651;BME280;40241;52.684;9.758;2023-10-19T03:40:56;99562.66;;;7.15;62.65
5651;BME280;40241;52.684;9.758;2023-10-19T03:43:25;99570.38;;;7.16;62.66
5651;BME280;40241;52.684;9.758;2023-10-19T03:45:52;99566.16;;;7.15;62.75
5651;BME280;40241;52.684;9.758;2023-10-19T03:48:21;99554.94;;;7.13;62.84
5651;BME280;40241;52.684;9.758;2023-10-19T03:50:55;99551.88;;;7.17;62.75
5651;BME280;40241;52.684;9.758;2023-10-19T03:53:22;99540.13;;;7.16;62.89
5651;BME280;40241;52.684;9.758;2023-10-19T03:55:48;99521.84;;;7.19;62.65
5651;BME280;40241;52.684;9.758;2023-10-19T03:58:16;99535.16;;;7.15;62.77
5651;BME280;40241;52.684;9.758;2023-10-19T04:00:41;99520.97;;;7.11;62.83
5651;BME280;40241;52.684;9.758;2023-10-19T04:03:07;99534.19;;;7.12;62.87
5651;BME280;40241;52.684;9.758;2023-10-19T04:05:32;99523.72;;;7.11;62.99
5651;BME280;40241;52.684;9.758;2023-10-19T04:08:04;99508.03;;;7.05;62.75
5651;BME280;40241;52.684;9.758;2023-10-19T04:10:38;99523.53;;;7.03;63.13
5651;BME280;40241;52.684;9.758;2023-10-19T04:13:04;99521.28;;;7.07;63.12
5651;BME280;40241;52.684;9.758;2023-10-19T04:15:34;99506.47;;;7.10;63.08
5651;BME280;40241;52.684;9.758;2023-10-19T04:18:02;99513.31;;;7.03;63.07
5651;BME280;40241;52.684;9.758;2023-10-19T04:20:33;99511.53;;;7.06;63.11
5651;BME280;40241;52.684;9.758;2023-10-19T04:23:21;99509.31;;;7.04;63.13
5651;BME280;40241;52.684;9.758;2023-10-19T04:25:47;99505.81;;;7.04;63.15
5651;BME280;40241;52.684;9.758;2023-10-19T04:28:13;99501.06;;;7.04;63.14
5651;BME280;40241;52.684;9.758;2023-10-19T04:30:55;99503.84;;;6.99;63.22
5651;BME280;40241;52.684;9.758;2023-10-19T04:33:20;99490.84;;;6.99;63.36
5651;BME280;40241;52.684;9.758;2023-10-19T04:35:47;99497.59;;;6.98;63.23
5651;BME280;40241;52.684;9.758;2023-10-19T04:38:19;99483.34;;;7.00;63.33
5651;BME280;40241;52.684;9.758;2023-10-19T04:40:45;99491.59;;;7.00;63.53
5651;BME280;40241;52.684;9.758;2023-10-19T04:43:10;99475.91;;;6.95;63.51
5651;BME280;40241;52.684;9.758;2023-10-19T04:45:39;99475.91;;;6.95;63.60
5651;BME280;40241;52.684;9.758;2023-10-19T04:48:05;99507.44;;;6.94;63.42
5651;BME280;40241;52.684;9.758;2023-10-19T04:50:31;99480.16;;;6.96;63.42
5651;BME280;40241;52.684;9.758;2023-10-19T04:52:56;99483.94;;;6.93;63.69
5651;BME280;40241;52.684;9.758;2023-10-19T04:55:22;99477.69;;;6.92;63.59
5651;BME280;40241;52.684;9.758;2023-10-19T04:57:47;99472.94;;;6.93;63.73
5651;BME280;40241;52.684;9.758;2023-10-19T05:00:13;99477.91;;;6.94;63.70
5651;BME280;40241;52.684;9.758;2023-10-19T05:02:39;99474.66;;;6.96;63.82
5651;BME280;40241;52.684;9.758;2023-10-19T05:05:05;99475.59;;;6.98;63.71
5651;BME280;40241;52.684;9.758;2023-10-19T05:07:30;99458.09;;;7.01;63.64
5651;BME280;40241;52.684;9.758;2023-10-19T05:09:56;99474.34;;;6.99;63.57
5651;BME280;40241;52.684;9.758;2023-10-19T05:12:23;99468.41;;;6.95;63.70
5651;BME280;40241;52.684;9.758;2023-10-19T05:14:49;99461.63;;;6.96;63.96
5651;BME280;40241;52.684;9.758;2023-10-19T05:17:14;99450.63;;;6.96;63.92
5651;BME280;40241;52.684;9.758;2023-10-19T05:19:39;99450.38;;;7.00;63.83
5651;BME280;40241;52.684;9.758;2023-10-19T05:22:06;99443.09;;;7.02;63.72
5651;BME280;40241;52.684;9.758;2023-10-19T05:24:32;99448.06;;;7.04;63.77
5651;BME280;40241;52.684;9.758;2023-10-19T05:26:58;99445.31;;;7.04;63.83
5651;BME280;40241;52.684;9.758;2023-10-19T05:29:23;99450.81;;;7.04;63.94
5651;BME280;40241;52.684;9.758;2023-10-19T05:31:50;99449.19;;;6.95;64.12
5651;BME280;40241;52.684;9.758;2023-10-19T05:34:19;99475.91;;;6.95;63.98
5651;BME280;40241;52.684;9.758;2023-10-19T05:36:45;99465.44;;;6.93;64.15
5651;BME280;40241;52.684;9.758;2023-10-19T05:39:11;99464.63;;;6.98;64.01
5651;BME280;40241;52.684;9.758;2023-10-19T05:41:38;99477.84;;;7.00;64.13
5651;BME280;40241;52.684;9.758;2023-10-19T05:44:05;99465.59;;;7.01;64.10
5651;BME280;40241;52.684;9.758;2023-10-19T05:46:30;99474.06;;;7.03;64.01
5651;BME280;40241;52.684;9.758;2023-10-19T05:48:57;99459.59;;;7.02;64.03
5651;BME280;40241;52.684;9.758;2023-10-19T05:51:23;99456.13;;;6.96;64.15
5651;BME280;40241;52.684;9.758;2023-10-19T05:53:48;99467.13;;;6.96;64.28
5651;BME280;40241;52.684;9.758;2023-10-19T05:56:14;99448.13;;;6.98;64.08
5651;BME280;40241;52.684;9.758;2023-10-19T05:58:41;99461.41;;;6.94;64.15
5651;BME280;40241;52.684;9.758;2023-10-19T06:01:07;99456.44;;;6.93;64.21
5651;BME280;40241;52.684;9.758;2023-10-19T06:03:32;99470.72;;;6.91;64.37
5651;BME280;40241;52.684;9.758;2023-10-19T06:05:57;99474.72;;;6.90;64.64
5651;BME280;40241;52.684;9.758;2023-10-19T06:08:23;99464.16;;;6.94;64.21
5651;BME280;40241;52.684;9.758;2023-10-19T06:10:52;99477.63;;;6.98;64.55
5651;BME280;40241;52.684;9.758;2023-10-19T06:13:18;99464.38;;;6.96;64.29
5651;BME280;40241;52.684;9.758;2023-10-19T06:15:43;99463.88;;;6.98;64.24
5651;BME280;40241;52.684;9.758;2023-10-19T06:18:09;99478.34;;;6.98;64.31
5651;BME280;40241;52.684;9.758;2023-10-19T06:20:36;99476.81;;;7.03;64.23
5651;BME280;40241;52.684;9.758;2023-10-19T06:23:01;99464.34;;;7.02;64.38
5651;BME280;40241;52.684;9.758;2023-10-19T06:25:31;99458.31;;;7.03;64.26
5651;BME280;40241;52.684;9.758;2023-10-19T06:27:57;99465.59;;;7.01;64.32
5651;BME280;40241;52.684;9.758;2023-10-19T06:30:23;99467.59;;;7.00;64.28
5651;BME280;40241;52.684;9.758;2023-10-19T06:32:59;99465.88;;;6.97;64.68
5651;BME280;40241;52.684;9.758;2023-10-19T06:35:32;99468.63;;;6.97;64.38
5651;BME280;40241;52.684;9.758;2023-10-19T06:37:59;99478.13;;;6.96;64.49
5651;BME280;40241;52.684;9.758;2023-10-19T06:40:25;99467.88;;;6.97;64.52
5651;BME280;40241;52.684;9.758;2023-10-19T06:42:57;99482.38;;;6.97;64.62
5651;BME280;40241;52.684;9.758;2023-10-19T06:45:23;99470.34;;;7.00;64.56
5651;BME280;40241;52.684;9.758;2023-10-19T06:47:50;99474.34;;;6.99;64.55
5651;BME280;40241;52.684;9.758;2023-10-19T06:50:18;99467.34;;;6.98;64.58
5651;BME280;40241;52.684;9.758;2023-10-19T06:52:45;99469.09;;;7.01;64.49
5651;BME280;40241;52.684;9.758;2023-10-19T06:55:16;99474.59;;;7.01;64.48
5651;BME280;40241;52.684;9.758;2023-10-19T06:57:52;99468.56;;;7.03;64.51
5651;BME280;40241;52.684;9.758;2023-10-19T07:00:19;99474.06;;;7.03;64.55
5651;BME280;40241;52.684;9.758;2023-10-19T07:02:46;99469.59;;;7.00;64.71
5651;BME280;40241;52.684;9.758;2023-10-19T07:05:12;99463.81;;;7.03;64.56
5651;BME280;40241;52.684;9.758;2023-10-19T07:07:43;99462.13;;;7.00;64.82
5651;BME280;40241;52.684;9.758;2023-10-19T07:10:09;99454.38;;;6.99;64.75
5651;BME280;40241;52.684;9.758;2023-10-19T07:12:39;99471.31;;;7.03;64.98
5651;BME280;40241;52.684;9.758;2023-10-19T07:15:07;99452.81;;;7.03;64.88
5651;BME280;40241;52.684;9.758;2023-10-19T07:17:36;99446.78;;;7.05;64.84
5651;BME280;40241;52.684;9.758;2023-10-19T07:20:04;99470.28;;;7.06;64.69
5651;BME280;40241;52.684;9.758;2023-10-19T07:22:34;99451.78;;;7.07;64.90
5651;BME280;40241;52.684;9.758;2023-10-19T07:25:06;99458.75;;;7.07;64.71
5651;BME280;40241;52.684;9.758;2023-10-19T07:27:33;99454.53;;;7.07;64.79
5651;BME280;40241;52.684;9.758;2023-10-19T07:30:02;99463.00;;;7.09;64.90
5651;BME280;40241;52.684;9.758;2023-10-19T07:32:31;99450.00;;;7.09;64.75
5651;BME280;40241;52.684;9.758;2023-10-19T07:34:57;99459.94;;;7.12;64.78
5651;BME280;40241;52.684;9.758;2023-10-19T07:37:22;99455.63;;;7.17;64.88
5651;BME280;40241;52.684;9.758;2023-10-19T07:39:48;99455.41;;;7.15;64.73
5651;BME280;40241;52.684;9.758;2023-10-19T07:42:14;99459.88;;;7.18;64.85
5651;BME280;40241;52.684;9.758;2023-10-19T07:44:40;99456.81;;;7.21;64.87
5651;BME280;40241;52.684;9.758;2023-10-19T07:47:06;99451.84;;;7.20;64.92
5651;BME280;40241;52.684;9.758;2023-10-19T07:49:37;99447.09;;;7.20;64.77
5651;BME280;40241;52.684;9.758;2023-10-19T07:52:06;99464.09;;;7.19;64.71
5651;BME280;40241;52.684;9.758;2023-10-19T07:54:35;99452.88;;;7.17;64.93
5651;BME280;40241;52.684;9.758;2023-10-19T07:57:01;99454.81;;;7.22;64.85
5651;BME280;40241;52.684;9.758;2023-10-19T07:59:30;99455.56;;;7.22;64.87
5651;BME280;40241;52.684;9.758;2023-10-19T08:01:56;99456.28;;;7.23;65.00
5651;BME280;40241;52.684;9.758;2023-10-19T08:04:21;99454.81;;;7.22;65.00
5651;BME280;40241;52.684;9.758;2023-10-19T08:06:47;99460.31;;;7.22;65.08
5651;BME280;40241;52.684;9.758;2023-10-19T08:09:12;99445.28;;;7.23;65.05
5651;BME280;40241;52.684;9.758;2023-10-19T08:11:38;99453.25;;;7.26;65.01
5651;BME280;40241;52.684;9.758;2023-10-19T08:14:03;99467.22;;;7.28;64.91
5651;BME280;40241;52.684;9.758;2023-10-19T08:16:30;99458.66;;;7.32;64.88
5651;BME280;40241;52.684;9.758;2023-10-19T08:18:57;99461.63;;;7.34;65.08
5651;BME280;40241;52.684;9.758;2023-10-19T08:21:23;99448.31;;;7.38;64.98
5651;BME280;40241;52.684;9.758;2023-10-19T08:23:48;99451.59;;;7.36;65.04
5651;BME280;40241;52.684;9.758;2023-10-19T08:26:13;99454.34;;;7.36;65.03
5651;BME280;40241;52.684;9.758;2023-10-19T08:28:40;99452.88;;;7.35;65.19
5651;BME280;40241;52.684;9.758;2023-10-19T08:31:08;99487.56;;;7.38;65.48
5651;BME280;40241;52.684;9.758;2023-10-19T08:33:35;99455.97;;;7.45;65.22
5651;BME280;40241;52.684;9.758;2023-10-19T08:36:04;99459.66;;;7.47;65.02
5651;BME280;40241;52.684;9.758;2023-10-19T08:38:30;99444.66;;;7.48;64.99
5651;BME280;40241;52.684;9.758;2023-10-19T08:40:55;99441.91;;;7.48;65.12
5651;BME280;40241;52.684;9.758;2023-10-19T08:43:21;99448.13;;;7.49;65.14
5651;BME280;40241;52.684;9.758;2023-10-19T08:45:46;99440.78;;;7.57;65.10
5651;BME280;40241;52.684;9.758;2023-10-19T08:48:13;99437.47;;;7.58;65.09
5651;BME280;40241;52.684;9.758;2023-10-19T08:50:39;99435.91;;;7.63;64.97
5651;BME280;40241;52.684;9.758;2023-10-19T08:53:07;99438.13;;;7.64;64.99
5651;BME280;40241;52.684;9.758;2023-10-19T08:55:36;99436.66;;;7.63;65.10
5651;BME280;40241;52.684;9.758;2023-10-19T08:58:01;99435.69;;;7.61;65.21
5651;BME280;40241;52.684;9.758;2023-10-19T09:00:42;99441.41;;;7.63;65.74
5651;BME280;40241;52.684;9.758;2023-10-19T09:03:09;99447.88;;;7.65;65.30
5651;BME280;40241;52.684;9.758;2023-10-19T09:05:39;99436.34;;;7.67;65.13
5651;BME280;40241;52.684;9.758;2023-10-19T09:08:05;99440.38;;;7.66;65.14
5651;BME280;40241;52.684;9.758;2023-10-19T09:10:31;99448.31;;;7.69;65.20
5651;BME280;40241;52.684;9.758;2023-10-19T09:13:05;99431.47;;;7.73;65.51
5651;BME280;40241;52.684;9.758;2023-10-19T09:15:35;99437.94;;;7.75;65.28
5651;BME280;40241;52.684;9.758;2023-10-19T09:18:20;99437.41;;;7.77;65.72
5651;BME280;40241;52.684;9.758;2023-10-19T09:20:47;99435.94;;;7.76;65.26
5651;BME280;40241;52.684;9.758;2023-10-19T09:23:34;99436.69;;;7.76;65.13
5651;BME280;40241;52.684;9.758;2023-10-19T09:26:02;99432.00;;;7.71;65.22
5651;BME280;40241;52.684;9.758;2023-10-19T09:28:36;99445.56;;;7.69;65.34
5651;BME280;40241;52.684;9.758;2023-10-19T09:31:03;99439.09;;;7.67;65.34
5651;BME280;40241;52.684;9.758;2023-10-19T09:33:31;99444.59;;;7.67;65.38
5651;BME280;40241;52.684;9.758;2023-10-19T09:36:00;99438.56;;;7.68;65.51
5651;BME280;40241;52.684;9.758;2023-10-19T09:38:26;99435.09;;;7.68;65.57
5651;BME280;40241;52.684;9.758;2023-10-19T09:40:52;99451.59;;;7.68;65.50
5651;BME280;40241;52.684;9.758;2023-10-19T09:43:34;99443.25;;;7.73;65.72
5651;BME280;40241;52.684;9.758;2023-10-19T09:46:01;99437.94;;;7.75;65.53
5651;BME280;40241;52.684;9.758;2023-10-19T09:48:31;99434.91;;;7.79;65.29
5651;BME280;40241;52.684;9.758;2023-10-19T09:51:01;99443.16;;;7.79;65.55
5651;BME280;40241;52.684;9.758;2023-10-19T09:53:29;99435.34;;;7.83;65.41
5651;BME280;40241;52.684;9.758;2023-10-19T09:55:59;99444.03;;;7.87;65.33
5651;BME280;40241;52.684;9.758;2023-10-19T09:58:32;99445.47;;;7.88;65.34
5651;BME280;40241;52.684;9.758;2023-10-19T10:01:00;99450.78;;;7.86;65.47
5651;BME280;40241;52.684;9.758;2023-10-19T10:03:49;99446.03;;;7.87;65.84
5651;BME280;40241;52.684;9.758;2023-10-19T10:06:26;99437.22;;;7.88;65.44
5651;BME280;40241;52.684;9.758;2023-10-19T10:08:52;99446.97;;;7.89;65.44
5651;BME280;40241;52.684;9.758;2023-10-19T10:11:24;99427.91;;;7.91;65.40
5651;BME280;40241;52.684;9.758;2023-10-19T10:13:52;99435.97;;;7.89;65.72
5651;BME280;40241;52.684;9.758;2023-10-19T10:16:22;99431.72;;;7.88;65.53
5651;BME280;40241;52.684;9.758;2023-10-19T10:18:49;99426.66;;;7.92;65.50
5651;BME280;40241;52.684;9.758;2023-10-19T10:21:23;99417.88;;;7.94;65.63
5651;BME280;40241;52.684;9.758;2023-10-19T10:23:57;99431.31;;;7.97;65.65
5651;BME280;40241;52.684;9.758;2023-10-19T10:26:30;99423.25;;;7.99;65.51
5651;BME280;40241;52.684;9.758;2023-10-19T10:31:46;99428.56;;;7.97;65.42
5651;BME280;40241;52.684;9.758;2023-10-19T10:37:17;99431.31;;;7.97;65.88
5651;BME280;40241;52.684;9.758;2023-10-19T10:39:42;99454.84;;;7.98;65.44
5651;BME280;40241;52.684;9.758;2023-10-19T10:42:10;99415.31;;;7.96;65.46
5651;BME280;40241;52.684;9.758;2023-10-19T10:44:40;99421.59;;;7.96;65.46
5651;BME280;40241;52.684;9.758;2023-10-19T10:47:19;99412.03;;;7.97;65.78
5651;BME280;40241;52.684;9.758;2023-10-19T10:49:54;99410.34;;;7.94;65.51
5651;BME280;40241;52.684;9.758;2023-10-19T10:52:29;99402.31;;;7.96;65.85
5651;BME280;40241;52.684;9.758;2023-10-19T10:54:56;99403.03;;;7.97;65.72
5651;BME280;40241;52.684;9.758;2023-10-19T10:57:21;99409.81;;;7.96;65.77
5651;BME280;40241;52.684;9.758;2023-10-19T11:00:10;99410.03;;;7.98;65.99
5651;BME280;40241;52.684;9.758;2023-10-19T11:02:40;99404.19;;;8.01;65.72
5651;BME280;40241;52.684;9.758;2023-10-19T11:05:10;99401.91;;;8.05;65.48
5651;BME280;40241;52.684;9.758;2023-10-19T11:07:39;99391.19;;;8.02;65.76
5651;BME280;40241;52.684;9.758;2023-10-19T11:10:05;99395.72;;;7.99;65.71
5651;BME280;40241;52.684;9.758;2023-10-19T11:12:31;99400.72;;;8.01;65.72
5651;BME280;40241;52.684;9.758;2023-10-19T11:15:00;99405.16;;;8.04;65.74
5651;BME280;40241;52.684;9.758;2023-10-19T11:17:26;99397.53;;;7.97;65.54
5651;BME280;40241;52.684;9.758;2023-10-19T11:19:56;99410.38;;;8.07;65.68
5651;BME280;40241;52.684;9.758;2023-10-19T11:22:22;99399.34;;;8.07;65.74
5651;BME280;40241;52.684;9.758;2023-10-19T11:24:50;99398.69;;;8.14;65.82
5651;BME280;40241;52.684;9.758;2023-10-19T11:27:27;99386.13;;;8.19;65.73
5651;BME280;40241;52.684;9.758;2023-10-19T11:29:55;99384.84;;;8.20;65.65
5651;BME280;40241;52.684;9.758;2023-10-19T11:32:21;99389.63;;;8.19;65.73
5651;BME280;40241;52.684;9.758;2023-10-19T11:34:47;99388.16;;;8.18;65.72
5651;BME280;40241;52.684;9.758;2023-10-19T11:37:13;99387.91;;;8.16;65.68
5651;BME280;40241;52.684;9.758;2023-10-19T11:39:38;99373.91;;;8.14;65.83
5651;BME280;40241;52.684;9.758;2023-10-19T11:42:04;99390.66;;;8.16;65.56
5651;BME280;40241;52.684;9.758;2023-10-19T11:44:29;99380.41;;;8.17;65.99
5651;BME280;40241;52.684;9.758;2023-10-19T11:46:55;99378.28;;;8.23;65.66
5651;BME280;40241;52.684;9.758;2023-10-19T11:49:20;99387.63;;;8.20;65.77
5651;BME280;40241;52.684;9.758;2023-10-19T11:51:46;99398.09;;;8.21;65.57
5651;BME280;40241;52.684;9.758;2023-10-19T11:54:11;99372.13;;;8.17;65.78
5651;BME280;40241;52.684;9.758;2023-10-19T11:56:38;99379.13;;;8.18;65.83
5651;BME280;40241;52.684;9.758;2023-10-19T11:59:04;99386.88;;;8.19;65.78
5651;BME280;40241;52.684;9.758;2023-10-19T12:01:29;99386.88;;;8.19;65.71
5651;BME280;40241;52.684;9.758;2023-10-19T12:03:54;99381.91;;;8.18;65.84
5651;BME280;40241;52.684;9.758;2023-10-19T12:06:20;99397.69;;;8.17;66.02
5651;BME280;40241;52.684;9.758;2023-10-19T12:08:48;99374.44;;;8.13;66.03
5651;BME280;40241;52.684;9.758;2023-10-19T12:11:14;99381.53;;;8.08;66.04
5651;BME280;40241;52.684;9.758;2023-10-19T12:13:44;99386.09;;;8.06;66.08
5651;BME280;40241;52.684;9.758;2023-10-19T12:16:11;99375.06;;;8.06;66.07
5651;BME280;40241;52.684;9.758;2023-10-19T12:18:38;99404.84;;;8.07;66.23
5651;BME280;40241;52.684;9.758;2023-10-19T12:21:04;99406.31;;;8.08;66.01
5651;BME280;40241;52.684;9.758;2023-10-19T12:23:33;99402.00;;;8.13;65.98
5651;BME280;40241;52.684;9.758;2023-10-19T12:25:59;99379.94;;;8.13;65.98
5651;BME280;40241;52.684;9.758;2023-10-19T12:28:28;99393.41;;;8.16;66.03
5651;BME280;40241;52.684;9.758;2023-10-19T12:30:53;99406.25;;;8.14;66.00
5651;BME280;40241;52.684;9.758;2023-10-19T12:33:19;99389.50;;;8.12;66.00
5651;BME280;40241;52.684;9.758;2023-10-19T12:35:44;99376.03;;;8.08;65.97
5651;BME280;40241;52.684;9.758;2023-10-19T12:38:11;99376.25;;;8.10;66.17
5651;BME280;40241;52.684;9.758;2023-10-19T12:40:44;99377.31;;;8.07;66.04
5651;BME280;40241;52.684;9.758;2023-10-19T12:43:11;99388.34;;;8.07;66.24
5651;BME280;40241;52.684;9.758;2023-10-19T12:45:37;99383.03;;;8.09;65.98
5651;BME280;40241;52.684;9.758;2023-10-19T12:48:03;99385.03;;;8.09;66.02
5651;BME280;40241;52.684;9.758;2023-10-19T12:50:35;99372.22;;;8.11;66.07
5651;BME280;40241;52.684;9.758;2023-10-19T12:53:01;99386.63;;;8.04;65.91
5651;BME280;40241;52.684;9.758;2023-10-19T12:55:31;99396.47;;;8.13;66.15
5651;BME280;40241;52.684;9.758;2023-10-19T12:57:57;99381.03;;;8.10;66.10
5651;BME280;40241;52.684;9.758;2023-10-19T13:00:24;99371.81;;;8.07;66.20
5651;BME280;40241;52.684;9.758;2023-10-19T13:02:57;99359.63;;;8.03;66.25
5651;BME280;40241;52.684;9.758;2023-10-19T13:08:04;99367.69;;;8.01;66.35
5651;BME280;40241;52.684;9.758;2023-10-19T13:10:31;99363.44;;;8.00;66.23
5651;BME280;40241;52.684;9.758;2023-10-19T13:13:01;99367.69;;;8.01;66.30
5651;BME280;40241;52.684;9.758;2023-10-19T13:15:32;99384.19;;;8.01;66.25
5651;BME280;40241;52.684;9.758;2023-10-19T13:17:58;99360.34;;;8.03;66.32
5651;BME280;40241;52.684;9.758;2023-10-19T13:20:27;99362.16;;;8.01;66.18
5651;BME280;40241;52.684;9.758;2023-10-19T13:22:53;99377.53;;;8.09;66.15
5651;BME280;40241;52.684;9.758;2023-10-19T13:25:19;99360.78;;;8.07;66.35
5651;BME280;40241;52.684;9.758;2023-10-19T13:27:53;99355.28;;;8.07;66.30
5651;BME280;40241;52.684;9.758;2023-10-19T13:30:19;99363.00;;;8.09;66.20
5651;BME280;40241;52.684;9.758;2023-10-19T13:32:44;99349.31;;;8.03;66.26
5651;BME280;40241;52.684;9.758;2023-10-19T13:35:11;99375.81;;;8.06;66.13
5651;BME280;40241;52.684;9.758;2023-10-19T13:37:36;99371.59;;;8.05;66.29